createdAt,value
2018-01-20T00:01:01.714Z,38.93
2018-01-20T00:03:29.257Z,39.60
2018-01-20T00:05:56.798Z,33.37
2018-01-20T00:08:24.338Z,42.20
2018-01-20T00:11:03.918Z,30.43
2018-01-20T00:13:31.463Z,38.07
2018-01-20T00:15:59.044Z,33.93
2018-01-20T00:18:26.590Z,34.63
2018-01-20T00:20:54.826Z,47.13
2018-01-20T00:23:22.442Z,34.87
2018-01-20T00:25:57.349Z,32.37
2018-01-20T00:28:24.898Z,33.97
2018-01-20T00:30:52.490Z,41.63
2018-01-20T00:33:20.259Z,38.77
2018-01-20T00:35:47.802Z,40.30
2018-01-20T00:38:15.462Z,34.90
2018-01-20T00:40:43.942Z,31.70
2018-01-20T00:43:11.543Z,38.20
2018-01-20T00:45:39.089Z,28.73
2018-01-20T00:48:07.430Z,31.30
2018-01-20T00:50:34.974Z,39.23
2018-01-20T00:53:02.519Z,39.50
2018-01-20T00:55:30.073Z,32.77
2018-01-20T00:57:57.620Z,30.40
2018-01-20T01:00:26.079Z,29.80
2018-01-20T01:02:54.413Z,36.23
2018-01-20T01:05:21.993Z,31.13
2018-01-20T01:07:49.534Z,35.00
2018-01-20T01:10:18.019Z,27.30
2018-01-20T01:12:45.630Z,31.67
2018-01-20T01:15:14.026Z,39.57
2018-01-20T01:17:42.395Z,34.27
2018-01-20T01:20:09.938Z,35.00
2018-01-20T01:22:37.478Z,34.13
2018-01-20T01:25:05.019Z,37.43
2018-01-20T01:27:32.599Z,38.40
2018-01-20T01:30:00.153Z,33.03
2018-01-20T01:32:28.734Z,42.93
2018-01-20T01:34:56.335Z,42.07
2018-01-20T01:37:23.898Z,32.40
2018-01-20T01:39:51.473Z,32.33
2018-01-20T01:42:19.118Z,42.30
2018-01-20T01:44:46.659Z,31.33
2018-01-20T01:47:14.209Z,34.90
2018-01-20T01:49:41.802Z,41.13
2018-01-20T01:52:09.378Z,34.27
2018-01-20T01:54:36.999Z,38.57
2018-01-20T01:57:04.590Z,36.47
2018-01-20T01:59:32.151Z,38.83
2018-01-20T02:01:59.708Z,38.33
2018-01-20T02:04:27.250Z,35.33
2018-01-20T02:06:54.834Z,37.37
2018-01-20T02:09:22.373Z,38.33
2018-01-20T02:11:49.954Z,34.60
2018-01-20T02:14:17.498Z,36.87
2018-01-20T02:16:45.179Z,30.37
2018-01-20T02:19:12.870Z,42.03
2018-01-20T02:21:40.474Z,38.40
2018-01-20T02:24:08.950Z,32.53
2018-01-20T02:26:36.551Z,34.37
2018-01-20T02:29:04.878Z,35.27
2018-01-20T02:31:32.422Z,36.80
2018-01-20T02:33:59.975Z,33.63
2018-01-20T02:36:28.625Z,35.80
2018-01-20T02:38:57.293Z,30.60
2018-01-20T02:41:25.618Z,33.90
2018-01-20T02:43:53.168Z,28.57
2018-01-20T02:46:20.818Z,33.00
2018-01-20T02:48:48.357Z,27.60
2018-01-20T02:51:16.047Z,25.07
2018-01-20T02:53:43.593Z,31.70
2018-01-20T02:56:11.338Z,28.00
2018-01-20T02:58:38.883Z,28.37
2018-01-20T03:01:07.302Z,22.00
2018-01-20T03:03:34.896Z,26.23
2018-01-20T03:06:02.482Z,26.83
2018-01-20T03:08:30.059Z,30.30
2018-01-20T03:10:57.601Z,28.17
2018-01-20T03:13:25.388Z,31.70
2018-01-20T03:15:52.970Z,41.10
2018-01-20T03:18:20.516Z,33.27
2018-01-20T03:20:48.072Z,30.93
2018-01-20T03:23:15.761Z,29.70
2018-01-20T03:25:43.302Z,31.93
2018-01-20T03:28:10.849Z,32.40
2018-01-20T03:30:38.407Z,30.93
2018-01-20T03:33:06.286Z,38.07
2018-01-20T03:35:34.600Z,36.77
2018-01-20T03:38:02.179Z,31.73
2018-01-20T03:40:29.758Z,34.50
2018-01-20T03:42:57.305Z,38.30
2018-01-20T03:45:24.904Z,32.40
2018-01-20T03:47:52.470Z,30.23
2018-01-20T03:50:20.020Z,34.13
2018-01-20T03:52:47.562Z,31.83
2018-01-20T03:55:15.106Z,38.60
2018-01-20T03:57:42.709Z,37.30
2018-01-20T04:00:11.103Z,39.93
2018-01-20T04:02:38.678Z,32.87
2018-01-20T04:05:06.217Z,34.00
2018-01-20T04:07:33.809Z,33.43
2018-01-20T04:10:01.440Z,35.20
2018-01-20T04:12:29.129Z,37.80
2018-01-20T04:14:57.458Z,30.87
2018-01-20T04:17:25.774Z,32.37
2018-01-20T04:19:53.451Z,31.20
2018-01-20T04:22:20.991Z,30.40
2018-01-20T04:24:48.536Z,38.23
2018-01-20T04:27:16.077Z,36.50
2018-01-20T04:29:43.622Z,28.93
2018-01-20T04:32:11.166Z,28.83
2018-01-20T04:34:38.810Z,28.97
2018-01-20T04:37:06.369Z,31.60
2018-01-20T04:39:33.997Z,34.30
2018-01-20T04:42:01.594Z,29.23
2018-01-20T04:44:29.363Z,38.60
2018-01-20T04:46:56.906Z,30.97
2018-01-20T04:49:24.451Z,35.10
2018-01-20T04:51:52.002Z,34.03
2018-01-20T04:54:19.551Z,26.90
2018-01-20T04:56:47.091Z,38.70
2018-01-20T04:59:14.634Z,34.80
2018-01-20T05:01:42.951Z,28.83
2018-01-20T05:04:10.495Z,29.67
2018-01-20T05:06:38.942Z,35.90
2018-01-20T05:09:07.264Z,35.13
2018-01-20T05:11:35.579Z,30.57
2018-01-20T05:14:03.123Z,31.83
2018-01-20T05:16:30.670Z,30.30
2018-01-20T05:18:58.249Z,37.00
2018-01-20T05:21:25.876Z,33.07
2018-01-20T05:23:53.549Z,32.80
2018-01-20T05:26:21.089Z,35.10
2018-01-20T05:28:48.633Z,37.30
2018-01-20T05:31:16.174Z,32.63
2018-01-20T05:33:43.720Z,34.40
2018-01-20T05:36:11.262Z,34.03
2018-01-20T05:38:39.409Z,31.87
2018-01-20T05:41:06.974Z,31.27
2018-01-20T05:43:35.469Z,31.50
2018-01-20T05:46:03.903Z,32.20
2018-01-20T05:48:31.482Z,35.57
2018-01-20T05:50:59.031Z,38.53
2018-01-20T05:53:26.681Z,31.67
2018-01-20T05:55:54.257Z,37.80
2018-01-20T05:58:21.878Z,36.57
2018-01-20T06:00:49.428Z,38.33
2018-01-20T06:03:16.992Z,32.10
2018-01-20T06:05:44.539Z,33.50
2018-01-20T06:08:12.081Z,30.33
2018-01-20T06:10:39.718Z,31.40
2018-01-20T06:13:07.258Z,32.50
2018-01-20T06:15:35.325Z,29.50
2018-01-20T06:18:02.954Z,28.57
2018-01-20T06:20:30.553Z,26.27
2018-01-20T06:22:58.096Z,33.17
2018-01-20T06:25:25.650Z,27.57
2018-01-20T06:27:53.243Z,30.43
2018-01-20T06:30:20.791Z,28.80
2018-01-20T06:32:48.333Z,33.40
2018-01-20T06:35:15.881Z,31.27
2018-01-20T06:37:43.441Z,31.77
2018-01-20T06:40:11.029Z,29.30
2018-01-20T06:42:38.582Z,32.27
2018-01-20T06:45:06.176Z,31.83
2018-01-20T06:47:33.731Z,32.47
2018-01-20T06:50:01.374Z,32.50
2018-01-20T06:52:28.917Z,32.20
2018-01-20T06:54:56.461Z,33.80
2018-01-20T06:57:24.081Z,31.70
2018-01-20T06:59:52.661Z,33.67
2018-01-20T07:02:21.198Z,37.80
2018-01-20T07:04:48.741Z,34.93
2018-01-20T07:07:16.320Z,32.43
2018-01-20T07:09:43.862Z,30.13
2018-01-20T07:12:11.451Z,37.57
2018-01-20T07:14:39.326Z,38.40
2018-01-20T07:17:06.947Z,31.13
2018-01-20T07:19:34.494Z,28.40
2018-01-20T07:22:02.045Z,37.10
2018-01-20T07:24:29.586Z,38.30
2018-01-20T07:26:57.166Z,34.60
2018-01-20T07:29:24.830Z,37.47
2018-01-20T07:31:52.463Z,33.50
2018-01-20T07:34:20.235Z,33.70
2018-01-20T07:36:47.783Z,37.77
2018-01-20T07:39:15.366Z,41.30
2018-01-20T07:41:42.908Z,76.20
2018-01-20T07:44:10.454Z,30.20
2018-01-20T07:46:38.002Z,29.43
2018-01-20T07:49:05.570Z,35.03
2018-01-20T07:51:33.282Z,33.77
2018-01-20T07:54:00.927Z,29.90
2018-01-20T07:56:28.476Z,33.87
2018-01-20T07:58:56.051Z,26.73
2018-01-20T08:01:23.599Z,38.10
2018-01-20T08:03:51.193Z,35.30
2018-01-20T08:06:18.733Z,41.90
2018-01-20T08:08:46.319Z,27.83
2018-01-20T08:11:13.864Z,38.50
2018-01-20T08:13:42.354Z,25.03
2018-01-20T08:16:10.015Z,28.23
2018-01-20T08:18:38.269Z,36.23
2018-01-20T08:21:05.823Z,29.73
2018-01-20T08:23:33.429Z,29.20
2018-01-20T08:26:00.979Z,29.73
2018-01-20T08:28:28.530Z,28.57
2018-01-20T08:30:56.100Z,29.67
2018-01-20T08:33:23.643Z,25.83
2018-01-20T08:35:51.189Z,37.47
2018-01-20T08:38:18.738Z,29.30
2018-01-20T08:40:46.280Z,30.33
2018-01-20T08:43:13.838Z,24.50
2018-01-20T08:45:41.378Z,27.87
2018-01-20T08:48:08.926Z,27.13
2018-01-20T08:50:36.510Z,23.97
2018-01-20T08:53:04.142Z,24.73
2018-01-20T08:55:31.706Z,26.37
2018-01-20T08:57:59.372Z,31.03
2018-01-20T09:00:26.918Z,27.20
2018-01-20T09:02:54.458Z,27.60
2018-01-20T09:05:22.006Z,24.43
2018-01-20T09:07:49.953Z,22.37
2018-01-20T09:10:17.603Z,21.57
2018-01-20T09:12:45.154Z,21.10
2018-01-20T09:15:12.753Z,27.67
2018-01-20T09:17:40.289Z,26.53
2018-01-20T09:20:07.891Z,22.27
2018-01-20T09:22:35.498Z,29.50
2018-01-20T09:25:03.269Z,23.90
2018-01-20T09:27:30.819Z,16.63
2018-01-20T09:29:58.482Z,23.13
2018-01-20T09:32:26.036Z,20.30
2018-01-20T09:34:54.381Z,21.23
2018-01-20T09:37:22.530Z,21.90
2018-01-20T09:39:50.081Z,22.00
2018-01-20T09:42:17.658Z,21.23
2018-01-20T09:44:45.288Z,17.40
2018-01-20T09:47:12.870Z,21.73
2018-01-20T09:49:41.313Z,17.70
2018-01-20T09:52:09.546Z,19.20
2018-01-20T09:54:38.004Z,16.73
2018-01-20T09:57:06.473Z,18.40
2018-01-20T09:59:34.905Z,18.23
2018-01-20T10:02:02.468Z,16.57
2018-01-20T10:04:30.058Z,20.73
2018-01-20T10:06:57.598Z,16.13
2018-01-20T10:09:26.099Z,18.97
2018-01-20T10:11:53.662Z,15.50
2018-01-20T10:14:21.338Z,16.63
2018-01-20T10:16:48.989Z,14.50
2018-01-20T10:19:16.624Z,16.03
2018-01-20T10:21:44.181Z,16.57
2018-01-20T10:24:11.778Z,15.30
2018-01-20T10:26:39.371Z,17.23
2018-01-20T10:29:06.991Z,15.00
2018-01-20T10:31:34.532Z,15.93
2018-01-20T10:34:02.371Z,13.60
2018-01-20T10:36:29.994Z,14.23
2018-01-20T10:38:57.573Z,19.53
2018-01-20T10:41:25.129Z,17.13
2018-01-20T10:43:52.709Z,13.20
2018-01-20T10:46:20.254Z,12.40
2018-01-20T10:48:47.834Z,12.23
2018-01-20T10:51:15.453Z,16.67
2018-01-20T10:53:43.283Z,14.00
2018-01-20T10:56:10.860Z,14.13
2018-01-20T10:58:39.390Z,10.60
2018-01-20T11:01:06.961Z,10.50
2018-01-20T11:03:34.578Z,12.27
2018-01-20T11:06:02.350Z,13.83
2018-01-20T11:08:30.798Z,10.43
2018-01-20T11:10:58.438Z,10.67
2018-01-20T11:13:26.029Z,11.10
2018-01-20T11:15:53.579Z,11.90
2018-01-20T11:18:21.136Z,11.83
2018-01-20T11:20:48.735Z,15.00
2018-01-20T11:23:16.397Z,14.37
2018-01-20T11:25:43.938Z,15.87
2018-01-20T11:28:11.528Z,12.97
2018-01-20T11:30:39.295Z,13.43
2018-01-20T11:33:06.883Z,12.90
2018-01-20T11:35:34.514Z,17.27
2018-01-20T11:38:02.049Z,15.23
2018-01-20T11:40:29.589Z,11.77
2018-01-20T11:42:57.130Z,14.40
2018-01-20T11:45:24.684Z,16.67
2018-01-20T11:47:52.463Z,12.87
2018-01-20T11:50:20.078Z,12.13
2018-01-20T11:52:47.624Z,14.00
2018-01-20T11:55:16.011Z,12.00
2018-01-20T11:57:43.552Z,11.63
2018-01-20T12:00:12.002Z,10.27
2018-01-20T12:02:40.247Z,9.97
2018-01-20T12:05:07.790Z,13.87
2018-01-20T12:07:35.357Z,15.60
2018-01-20T12:10:02.904Z,17.63
2018-01-20T12:12:30.448Z,14.90
2018-01-20T12:14:57.983Z,17.57
2018-01-20T12:17:25.593Z,23.70
2018-01-20T12:19:53.190Z,16.43
2018-01-20T12:22:20.749Z,23.30
2018-01-20T12:24:48.291Z,18.23
2018-01-20T12:27:16.053Z,22.70
2018-01-20T12:29:44.397Z,19.40
2018-01-20T12:32:11.957Z,17.83
2018-01-20T12:34:39.504Z,24.50
2018-01-20T12:37:07.077Z,21.60
2018-01-20T12:39:34.623Z,22.10
2018-01-20T12:42:02.173Z,18.37
2018-01-20T12:44:29.753Z,23.20
2018-01-20T12:46:57.433Z,23.27
2018-01-20T12:49:24.991Z,22.77
2018-01-20T12:51:53.394Z,17.97
2018-01-20T12:54:21.744Z,21.30
2018-01-20T12:56:50.661Z,17.20
2018-01-20T12:59:19.258Z,21.23
2018-01-20T13:01:48.090Z,20.37
2018-01-20T13:04:15.703Z,18.10
2018-01-20T13:06:43.241Z,24.53
2018-01-20T13:09:10.890Z,21.70
2018-01-20T13:11:40.027Z,15.83
2018-01-20T13:14:08.629Z,17.63
2018-01-20T13:16:43.799Z,25.80
2018-01-20T13:19:17.878Z,21.70
2018-01-20T13:21:48.390Z,16.90
2018-01-20T13:24:22.403Z,16.07
2018-01-20T13:26:54.769Z,20.80
2018-01-20T13:32:14.870Z,18.83
2018-01-20T13:35:07.468Z,19.63
2018-01-20T13:40:47.453Z,18.80
2018-01-20T13:43:17.908Z,17.13
2018-01-20T13:49:05.399Z,18.10
2018-01-20T13:51:35.929Z,17.03
2018-01-20T13:54:05.225Z,16.60
2018-01-20T13:56:34.007Z,17.50
2018-01-20T13:59:03.914Z,20.70
2018-01-20T14:01:33.285Z,20.47
2018-01-20T14:04:03.042Z,15.87
2018-01-20T14:06:31.828Z,21.47
2018-01-20T14:09:00.732Z,18.02
2018-01-20T14:11:28.994Z,24.87
2018-01-20T14:14:06.628Z,23.17
2018-01-20T14:16:45.358Z,21.30
2018-01-20T14:19:13.609Z,22.73
2018-01-20T14:24:38.543Z,17.63
2018-01-20T14:27:12.629Z,18.17
2018-01-20T14:29:45.918Z,20.70
2018-01-20T14:32:15.513Z,25.10
2018-01-20T14:34:51.537Z,20.90
2018-01-20T14:37:21.920Z,23.13
2018-01-20T14:39:52.188Z,17.57
2018-01-20T14:45:07.993Z,17.97
2018-01-20T14:47:46.058Z,20.33
2018-01-20T14:50:15.769Z,16.00
2018-01-20T14:52:45.648Z,19.63
2018-01-20T14:55:21.233Z,20.37
2018-01-20T14:58:04.777Z,19.30
2018-01-20T15:00:39.099Z,22.70
2018-01-20T15:03:17.432Z,17.03
2018-01-20T15:05:50.709Z,20.70
2018-01-20T15:08:19.846Z,19.00
2018-01-20T15:10:47.389Z,26.80
2018-01-20T15:13:15.022Z,21.67
2018-01-20T15:15:42.687Z,22.50
2018-01-20T15:18:10.430Z,21.87
2018-01-20T15:20:38.017Z,18.30
2018-01-20T15:23:05.566Z,19.23
2018-01-20T15:25:33.175Z,18.63
2018-01-20T15:28:00.722Z,20.07
2018-01-20T15:30:28.273Z,17.70
2018-01-20T15:32:55.869Z,18.60
2018-01-20T15:35:23.478Z,16.27
2018-01-20T15:37:51.022Z,19.27
2018-01-20T15:40:18.605Z,17.40
2018-01-20T15:42:46.902Z,17.07
2018-01-20T15:45:15.330Z,21.40
2018-01-20T15:47:42.897Z,16.23
2018-01-20T15:50:10.564Z,20.47
2018-01-20T15:52:38.115Z,15.70
2018-01-20T15:55:05.707Z,11.07
2018-01-20T15:57:33.258Z,14.40
2018-01-20T16:00:00.800Z,19.97
2018-01-20T16:02:28.350Z,15.37
2018-01-20T16:04:55.946Z,13.00
2018-01-20T16:07:23.486Z,13.13
2018-01-20T16:09:51.030Z,19.60
2018-01-20T16:12:18.574Z,23.13
2018-01-20T16:14:46.190Z,13.67
2018-01-20T16:17:14.610Z,17.67
2018-01-20T16:19:43.763Z,18.83
2018-01-20T16:22:15.268Z,20.17
2018-01-20T16:24:43.877Z,21.63
2018-01-20T16:27:11.574Z,18.50
2018-01-20T16:29:39.745Z,20.90
2018-01-20T16:32:07.841Z,23.90
2018-01-20T16:34:35.459Z,19.33
2018-01-20T16:37:03.005Z,14.60
2018-01-20T16:39:31.398Z,16.70
2018-01-20T16:41:58.942Z,15.97
2018-01-20T16:44:26.511Z,14.63
2018-01-20T16:46:54.899Z,10.90
2018-01-20T16:49:22.437Z,13.03
2018-01-20T16:51:50.015Z,12.17
2018-01-20T16:54:17.556Z,13.13
2018-01-20T16:56:45.264Z,8.87
2018-01-20T16:59:12.945Z,9.70
2018-01-20T17:01:40.526Z,11.50
2018-01-20T17:04:08.127Z,12.77
2018-01-20T17:06:35.674Z,13.60
2018-01-20T17:09:03.214Z,11.57
2018-01-20T17:11:30.762Z,18.40
2018-01-20T17:13:58.360Z,12.93
2018-01-20T17:16:26.063Z,15.40
2018-01-20T17:18:53.639Z,13.57
2018-01-20T17:21:21.178Z,10.70
2018-01-20T17:23:49.467Z,14.30
2018-01-20T17:26:17.941Z,16.90
2018-01-20T17:28:46.267Z,17.03
2018-01-20T17:31:13.896Z,14.60
2018-01-20T17:33:41.433Z,17.13
2018-01-20T17:36:09.202Z,16.50
2018-01-20T17:38:36.786Z,17.57
2018-01-20T17:41:04.342Z,23.73
2018-01-20T17:43:31.913Z,17.27
2018-01-20T17:45:59.459Z,15.93
2018-01-20T17:48:27.054Z,22.77
2018-01-20T17:50:54.598Z,19.47
2018-01-20T17:53:22.364Z,17.27
2018-01-20T17:55:49.910Z,24.80
2018-01-20T17:58:18.222Z,28.67
2018-01-20T18:00:45.802Z,24.13
2018-01-20T18:03:13.345Z,25.43
2018-01-20T18:05:40.959Z,22.73
2018-01-20T18:08:08.585Z,16.93
2018-01-20T18:10:36.380Z,28.73
2018-01-20T18:13:03.926Z,21.23
2018-01-20T18:15:31.505Z,25.70
2018-01-20T18:17:59.046Z,24.67
2018-01-20T18:20:26.627Z,21.80
2018-01-20T18:22:55.076Z,25.47
2018-01-20T18:25:22.630Z,24.80
2018-01-20T18:27:50.245Z,29.10
2018-01-20T18:30:17.793Z,35.30
2018-01-20T18:32:46.243Z,34.40
2018-01-20T18:35:13.836Z,32.72
2018-01-20T18:37:41.399Z,28.87
2018-01-20T18:40:08.942Z,27.43
2018-01-20T18:42:36.514Z,25.77
2018-01-20T18:45:05.251Z,36.85
2018-01-20T18:47:32.982Z,41.22
2018-01-20T18:50:00.530Z,39.92
2018-01-20T18:52:28.076Z,35.95
2018-01-20T18:54:55.653Z,38.03
2018-01-20T18:57:23.314Z,35.22
2018-01-20T18:59:50.862Z,39.05
2018-01-20T19:02:18.406Z,42.90
2018-01-20T19:04:46.097Z,43.72
2018-01-20T19:07:13.661Z,43.28
2018-01-20T19:09:41.218Z,31.30
2018-01-20T19:12:08.774Z,46.33
2018-01-20T19:14:36.362Z,43.38
2018-01-20T19:17:03.962Z,39.10
2018-01-20T19:19:32.125Z,42.30
2018-01-20T19:21:59.669Z,34.47
2018-01-20T19:24:27.414Z,38.40
2018-01-20T19:26:54.970Z,46.20
2018-01-20T19:29:22.526Z,45.95
2018-01-20T19:31:50.084Z,42.85
2018-01-20T19:34:17.642Z,39.00
2018-01-20T19:36:45.189Z,41.78
2018-01-20T19:39:12.770Z,35.55
2018-01-20T19:41:41.411Z,38.28
2018-01-20T19:44:09.834Z,40.65
2018-01-20T19:46:38.182Z,42.60
2018-01-20T19:49:05.737Z,33.25
2018-01-20T19:51:33.298Z,37.08
2018-01-20T19:54:00.895Z,42.92
2018-01-20T19:56:28.451Z,41.72
2018-01-20T19:58:56.075Z,42.50
2018-01-20T20:01:23.635Z,35.45
2018-01-20T20:03:51.380Z,37.42
2018-01-20T20:06:18.972Z,36.03
2018-01-20T20:08:46.524Z,34.22
2018-01-20T20:11:14.074Z,35.47
2018-01-20T20:13:41.630Z,36.47
2018-01-20T20:16:09.219Z,41.03
2018-01-20T20:18:36.960Z,38.50
2018-01-20T20:21:04.521Z,43.67
2018-01-20T20:23:32.141Z,46.37
2018-01-20T20:25:59.695Z,45.58
2018-01-20T20:28:27.294Z,45.72
2018-01-20T20:30:54.845Z,53.55
2018-01-20T20:33:22.399Z,57.75
2018-01-20T20:35:49.953Z,49.40
2018-01-20T20:38:17.555Z,48.70
2018-01-20T20:40:45.310Z,42.08
2018-01-20T20:43:12.871Z,49.92
2018-01-20T20:45:40.470Z,50.50
2018-01-20T20:48:12.375Z,44.38
2018-01-20T20:56:33.048Z,55.05
2018-01-20T20:59:09.257Z,45.30
2018-01-20T21:01:43.356Z,47.70
2018-01-20T21:13:55.004Z,44.70
2018-01-20T21:16:23.240Z,49.38
2018-01-20T21:18:55.575Z,53.20
2018-01-20T21:21:32.130Z,49.80
2018-01-20T21:24:15.672Z,52.40
2018-01-20T21:26:45.433Z,53.53
2018-01-20T21:29:22.519Z,43.50
2018-01-20T21:31:52.721Z,39.97
2018-01-20T21:37:20.402Z,36.00
2018-01-20T21:39:55.933Z,41.78
2018-01-20T21:42:24.672Z,57.13
2018-01-20T21:44:57.335Z,42.95
2018-01-20T21:47:31.320Z,54.38
2018-01-20T21:49:59.650Z,50.40
2018-01-20T21:52:35.349Z,52.67
2018-01-20T22:06:37.683Z,54.85
2018-01-20T22:09:05.271Z,66.07
2018-01-20T22:11:32.966Z,53.47
2018-01-20T22:14:00.529Z,48.85
2018-01-20T22:16:28.142Z,49.55
2018-01-20T22:18:55.701Z,62.83
2018-01-20T22:21:23.353Z,54.80
2018-01-20T22:23:50.910Z,55.45
2018-01-20T22:26:18.465Z,65.82
2018-01-20T22:28:46.058Z,61.85
2018-01-20T22:31:13.679Z,58.10
2018-01-20T22:33:41.505Z,46.20
2018-01-20T22:36:09.137Z,56.65
2018-01-20T22:38:36.769Z,51.35
2018-01-20T22:41:04.319Z,46.50
2018-01-20T22:43:31.924Z,47.45
2018-01-20T22:45:59.475Z,48.13
2018-01-20T22:48:28.606Z,67.03
2018-01-20T22:50:56.199Z,66.07
2018-01-20T22:53:23.905Z,64.22
2018-01-20T22:55:51.493Z,49.13
2018-01-20T22:58:19.054Z,56.45
2018-01-20T23:00:46.685Z,51.08
2018-01-20T23:03:14.242Z,59.30
2018-01-20T23:05:41.799Z,57.00
2018-01-20T23:08:10.401Z,58.08
2018-01-20T23:10:38.236Z,48.00
2018-01-20T23:13:05.786Z,40.05
2018-01-20T23:15:33.354Z,41.35
2018-01-20T23:18:00.942Z,47.60
2018-01-20T23:20:28.494Z,43.45
2018-01-20T23:22:56.078Z,47.47
2018-01-20T23:25:23.729Z,44.95
2018-01-20T23:27:51.326Z,33.83
2018-01-20T23:30:18.915Z,30.20
2018-01-20T23:32:47.434Z,38.50
2018-01-20T23:35:14.989Z,41.65
2018-01-20T23:37:43.102Z,47.75
2018-01-20T23:40:10.653Z,49.80
2018-01-20T23:42:38.211Z,60.53
2018-01-20T23:45:05.820Z,47.67
2018-01-20T23:47:33.410Z,52.38
2018-01-20T23:50:00.961Z,46.83
2018-01-20T23:52:28.508Z,46.13
2018-01-20T23:54:56.062Z,46.65
2018-01-20T23:57:23.627Z,50.15
2018-01-20T23:59:51.173Z,61.85
